createdAt,value
2019-04-29T00:03:59.000Z,20.12
2019-04-29T00:13:59.000Z,20.12
2019-04-29T00:23:59.000Z,20.07
2019-04-29T00:33:59.000Z,20.07
2019-04-29T00:43:59.000Z,20.01
2019-04-29T01:03:59.000Z,19.96
2019-04-29T01:14:00.000Z,19.96
2019-04-29T01:24:02.000Z,19.9
2019-04-29T01:33:59.000Z,19.9
2019-04-29T01:43:59.000Z,19.88
2019-04-29T02:04:00.000Z,19.83
2019-04-29T02:14:00.000Z,19.82
2019-04-29T02:23:59.000Z,19.79
2019-04-29T02:33:59.000Z,19.78
2019-04-29T02:43:59.000Z,19.78
2019-04-29T02:54:00.000Z,19.75
2019-04-29T03:03:59.000Z,19.71
2019-04-29T03:13:59.000Z,19.68
2019-04-29T03:24:00.000Z,19.66
2019-04-29T03:34:03.000Z,19.67
2019-04-29T03:44:00.000Z,19.65
2019-04-29T03:54:00.000Z,19.61
2019-04-29T04:04:00.000Z,19.61
2019-04-29T04:14:02.000Z,19.57
2019-04-29T04:24:00.000Z,19.54
2019-04-29T04:34:00.000Z,19.54
2019-04-29T04:44:03.000Z,19.52
2019-04-29T04:54:00.000Z,19.5
2019-04-29T05:04:00.000Z,19.49
2019-04-29T05:14:00.000Z,19.5
2019-04-29T05:24:00.000Z,19.51
2019-04-29T05:34:00.000Z,19.47
2019-04-29T05:44:00.000Z,19.52
2019-04-29T05:54:00.000Z,19.52
2019-04-29T06:04:00.000Z,19.56
2019-04-29T06:14:00.000Z,19.57
2019-04-29T06:24:00.000Z,19.59
2019-04-29T06:34:02.000Z,19.66
2019-04-29T06:44:00.000Z,19.72
2019-04-29T06:54:00.000Z,19.76
2019-04-29T07:04:00.000Z,19.78
2019-04-29T07:14:02.000Z,19.81
2019-04-29T07:24:00.000Z,19.87
2019-04-29T07:34:00.000Z,19.91
2019-04-29T07:44:00.000Z,20.01
2019-04-29T07:54:00.000Z,20.15
2019-04-29T08:04:00.000Z,20.28
2019-04-29T08:14:00.000Z,20.44
2019-04-29T08:24:00.000Z,20.62
2019-04-29T08:34:00.000Z,20.78
2019-04-29T08:44:00.000Z,20.89
2019-04-29T08:54:00.000Z,20.9
2019-04-29T09:04:00.000Z,21
2019-04-29T09:14:00.000Z,21.03
2019-04-29T09:24:00.000Z,21.06
2019-04-29T09:34:00.000Z,21.06
2019-04-29T09:44:00.000Z,21.14
2019-04-29T09:54:00.000Z,21.04
2019-04-29T10:04:03.000Z,21.17
2019-04-29T10:14:00.000Z,21.02
2019-04-29T10:24:00.000Z,20.9
2019-04-29T10:34:00.000Z,21.1
2019-04-29T10:44:00.000Z,21.02
2019-04-29T10:54:01.000Z,20.98
2019-04-29T11:04:00.000Z,20.95
2019-04-29T11:14:00.000Z,20.96
2019-04-29T11:24:00.000Z,20.95
2019-04-29T11:34:00.000Z,20.97
2019-04-29T11:44:00.000Z,20.95
2019-04-29T11:54:01.000Z,20.95
2019-04-29T12:04:01.000Z,20.99
2019-04-29T12:14:01.000Z,21.08
2019-04-29T12:24:01.000Z,21.15
2019-04-29T12:34:01.000Z,21.22
2019-04-29T12:44:02.000Z,21.23
2019-04-29T12:54:02.000Z,21.25
2019-04-29T13:04:01.000Z,21.28
2019-04-29T13:14:01.000Z,21.34
2019-04-29T13:24:01.000Z,21.32
2019-04-29T13:34:01.000Z,21.32
2019-04-29T13:44:01.000Z,21.34
2019-04-29T13:54:17.000Z,21.31
2019-04-29T14:04:19.000Z,21.31
2019-04-29T14:14:18.000Z,21.27
2019-04-29T14:24:17.000Z,21.29
2019-04-29T14:34:17.000Z,21.3
2019-04-29T14:44:18.000Z,21.28
2019-04-29T15:04:18.000Z,21.31
2019-04-29T15:24:17.000Z,21.25
2019-04-29T15:34:17.000Z,21.23
2019-04-29T15:44:17.000Z,21.24
2019-04-29T15:54:17.000Z,21.21
2019-04-29T16:04:17.000Z,21.21
2019-04-29T16:14:17.000Z,21.19
2019-04-29T16:24:17.000Z,21.19
2019-04-29T16:34:17.000Z,21.18
2019-04-29T16:44:17.000Z,21.2
2019-04-29T16:54:17.000Z,21.26
2019-04-29T17:04:17.000Z,21.33
2019-04-29T17:14:17.000Z,21.38
2019-04-29T17:24:17.000Z,21.45
2019-04-29T17:34:20.000Z,21.42
2019-04-29T17:44:17.000Z,21.4
2019-04-29T17:54:17.000Z,21.35
2019-04-29T18:04:18.000Z,21.34
2019-04-29T18:14:17.000Z,21.35
2019-04-29T18:24:19.000Z,21.35
2019-04-29T18:34:17.000Z,21.35
2019-04-29T18:44:17.000Z,21.36
2019-04-29T18:54:17.000Z,21.33
2019-04-29T19:04:17.000Z,21.33
2019-04-29T19:14:17.000Z,21.35
2019-04-29T19:24:17.000Z,21.33
2019-04-29T19:34:17.000Z,21.31
2019-04-29T19:44:17.000Z,21.3
2019-04-29T19:54:17.000Z,21.29
2019-04-29T20:04:17.000Z,21.27
2019-04-29T20:14:19.000Z,21.23
2019-04-29T20:24:17.000Z,21.26
2019-04-29T20:34:17.000Z,21.24
2019-04-29T20:44:17.000Z,21.25
2019-04-29T20:54:18.000Z,21.26
2019-04-29T21:04:19.000Z,21.25
2019-04-29T21:14:18.000Z,21.26
2019-04-29T21:24:20.000Z,21.3
2019-04-29T21:34:18.000Z,21.29
2019-04-29T21:44:18.000Z,21.34
2019-04-29T21:54:19.000Z,21.4
2019-04-29T22:04:18.000Z,21.38
2019-04-29T22:14:18.000Z,21.33
2019-04-29T22:24:18.000Z,21.23
2019-04-29T22:34:18.000Z,21.17
2019-04-29T22:44:18.000Z,21.11
2019-04-29T22:54:18.000Z,21.07
2019-04-29T23:04:18.000Z,21.02
2019-04-29T23:14:18.000Z,20.98
2019-04-29T23:24:18.000Z,20.95
2019-04-29T23:34:18.000Z,20.89
2019-04-29T23:44:18.000Z,20.87
2019-04-29T23:54:18.000Z,20.83
